Morrow, Ohio
Current Conditions -  °F | °C
As of 3:54 PM on Saturday 20 Dec 2014 (Local Time) from KILN Reporting Station
Haze Haze  
Wind Chill: 30°   Ceiling: 1500
Heat Index: 30°   Visibility: 6mi
Dew Point: 22°   Wind: 3mph
Humidity: 72%   Direction: 40°NE
Pressure: 30.24"   Gusts: NA
Location:  39.35°N, 84.13°W
Report Text: KILN 202054Z AUTO 04003KT 6SM HZ OVC015 M01/M06 A3024 RMK AO2 SLP269 T10111056 55003
Loading
Personal Weather Stations






























Interactive Weather Map New forecast layout! Learn more

10-Day Weather Forecast

Advertisements
Track Severe Weather on mobile